Time;durP1;ratioP1;P1;durP2;ratioP2;P2;SDS_P1;SDS_P2;PMS_P1;PMS_P2;Temp;Humidity;BMP_temperature;BMP_pressure;BME280_temperature;BME280_humidity;BME280_pressure;Samples;Min_cycle;Max_cycle;Signal;HPM_P1;HPM_P2
2022/11/07 00:00:28;;;;;;;13.73;12.43;;;;;;;21.11;46.49;95268.16;5980986;29;103709;-68
2022/11/07 00:03:31;;;;;;;13.07;11.90;;;;;;;21.10;46.16;95270.03;5994732;29;104433;-67
2022/11/07 00:06:36;;;;;;;14.47;13.10;;;;;;;21.12;46.48;95272.41;5980538;29;104660;-68
2022/11/07 00:09:39;;;;;;;14.07;12.67;;;;;;;21.10;46.28;95270.03;5981816;29;106179;-67
2022/11/07 00:12:42;;;;;;;13.50;12.30;;;;;;;21.09;46.57;95279.09;5985962;29;106546;-68
2022/11/07 00:15:46;;;;;;;14.73;13.33;;;;;;;21.10;46.31;95278.03;5993154;29;103831;-68
2022/11/07 00:18:49;;;;;;;13.10;11.90;;;;;;;21.09;46.49;95283.63;5983325;29;103686;-67
2022/11/07 00:21:52;;;;;;;14.20;12.83;;;;;;;21.09;46.44;95284.44;5978130;29;104397;-67
2022/11/07 00:24:55;;;;;;;14.57;12.70;;;;;;;21.08;46.51;95282.06;5972281;29;103926;-68
2022/11/07 00:27:58;;;;;;;13.50;12.30;;;;;;;21.07;46.17;95281.28;5985303;29;103587;-68
2022/11/07 00:31:03;;;;;;;12.37;11.20;;;;;;;21.07;46.33;95275.16;5989548;29;104088;-68
2022/11/07 00:34:06;;;;;;;13.20;11.97;;;;;;;21.05;46.20;95277.34;5973872;29;103965;-68
2022/11/07 00:37:09;;;;;;;13.10;11.90;;;;;;;21.05;46.09;95274.66;5972096;29;103724;-68
2022/11/07 00:40:13;;;;;;;12.90;11.70;;;;;;;21.06;45.99;95271.72;5971616;29;103704;-67
2022/11/07 00:43:16;;;;;;;13.03;11.73;;;;;;;21.08;46.34;95272.22;5961778;29;103775;-67
2022/11/07 00:46:21;;;;;;;13.10;11.90;;;;;;;21.06;45.90;95277.03;5953963;29;103607;-68
2022/11/07 00:49:24;;;;;;;13.37;12.27;;;;;;;21.08;45.89;95272.22;5970339;29;103939;-66
2022/11/07 00:52:27;;;;;;;13.57;12.37;;;;;;;21.07;45.97;95272.50;5973578;29;103894;-68
2022/11/07 00:55:32;;;;;;;13.40;12.10;;;;;;;21.08;46.41;95274.09;5962192;29;104060;-68
2022/11/07 00:58:35;;;;;;;14.40;13.00;;;;;;;21.06;46.14;95268.28;5980898;29;103903;-67
2022/11/07 01:01:39;;;;;;;13.00;11.90;;;;;;;21.04;46.11;95265.88;5993854;29;103933;-67
2022/11/07 01:08:04;;;;;;;14.37;13.03;;;;;;;21.03;45.94;95263.50;5987608;29;104130;-68
2022/11/07 01:11:07;;;;;;;14.77;13.37;;;;;;;21.01;46.19;95268.34;5993673;29;103907;-68
2022/11/07 01:14:12;;;;;;;13.67;12.47;;;;;;;21.01;46.32;95265.69;5991542;29;103873;-68
2022/11/07 01:17:16;;;;;;;13.83;12.53;;;;;;;21.00;46.13;95264.84;5968205;29;103960;-68
2022/11/07 01:20:19;;;;;;;14.60;13.30;;;;;;;21.00;46.16;95266.72;5989070;29;103748;-68
2022/11/07 01:23:23;;;;;;;14.20;12.83;;;;;;;21.00;46.29;95258.75;5964514;29;103712;-68
2022/11/07 01:26:26;;;;;;;14.37;13.20;;;;;;;20.97;46.08;95257.47;5975522;29;103833;-68
2022/11/07 01:29:29;;;;;;;14.17;12.87;;;;;;;20.98;46.36;95250.28;5959799;29;103762;-68
2022/11/07 01:32:33;;;;;;;13.67;12.50;;;;;;;20.96;46.49;95244.47;5971000;29;103912;-67
2022/11/07 01:35:37;;;;;;;14.20;12.90;;;;;;;20.97;46.21;95249.50;5970433;29;103909;-68
2022/11/07 01:38:42;;;;;;;14.10;12.97;;;;;;;20.97;46.00;95244.16;5970691;29;103753;-68
2022/11/07 01:41:45;;;;;;;13.83;12.53;;;;;;;20.97;45.99;95241.50;5959688;29;103884;-68
2022/11/07 01:44:54;;;;;;;13.63;12.33;;;;;;;20.98;46.29;95242.28;5970578;29;104049;-68
2022/11/07 01:48:01;;;;;;;14.57;13.33;;;;;;;20.98;46.07;95245.75;5954879;29;103930;-68
2022/11/07 01:51:06;;;;;;;14.33;13.00;;;;;;;20.97;46.17;95238.84;5985766;29;103772;-68
2022/11/07 01:54:10;;;;;;;13.77;12.47;;;;;;;20.97;46.07;95240.72;5984721;29;103900;-67
2022/11/07 01:57:19;;;;;;;13.97;12.57;;;;;;;20.96;46.24;95239.13;5981596;29;103752;-68
2022/11/07 02:00:24;;;;;;;14.10;12.70;;;;;;;20.96;46.35;95233.81;5992634;29;103865;-68
2022/11/07 02:03:29;;;;;;;13.70;12.40;;;;;;;20.92;46.26;95236.28;5974958;29;104340;-68
2022/11/07 02:06:39;;;;;;;14.47;13.17;;;;;;;20.92;46.17;95231.75;5974103;29;103766;-66
2022/11/07 02:09:43;;;;;;;13.37;12.17;;;;;;;20.94;46.36;95234.13;5991689;29;103721;-68
2022/11/07 02:12:46;;;;;;;13.93;12.67;;;;;;;20.93;46.10;95245.84;5989754;29;104656;-67
2022/11/07 02:15:49;;;;;;;14.40;13.10;;;;;;;20.89;46.10;95242.97;5960492;29;104431;-68
2022/11/07 02:18:53;;;;;;;14.50;13.10;;;;;;;20.91;46.49;95246.13;5965895;29;105701;-67
2022/11/07 02:22:01;;;;;;;13.30;12.10;;;;;;;20.90;46.65;95252.53;5966883;29;103742;-67
2022/11/07 02:25:09;;;;;;;13.83;12.53;;;;;;;20.87;46.12;95244.38;5973975;29;103992;-68
2022/11/07 02:28:14;;;;;;;14.47;12.77;;;;;;;20.90;46.22;95249.09;5979141;29;103698;-67
2022/11/07 02:31:17;;;;;;;13.37;12.17;;;;;;;20.88;46.29;95249.38;5987803;29;103879;-62
2022/11/07 02:34:20;;;;;;;13.40;12.10;;;;;;;20.90;45.89;95249.09;5975035;29;103735;-63
2022/11/07 02:37:27;;;;;;;14.03;11.70;;;;;;;20.86;46.14;95248.91;5965506;29;104072;-64
2022/11/07 02:40:32;;;;;;;12.73;11.60;;;;;;;20.88;46.12;95254.72;5973365;29;104147;-63
2022/11/07 02:43:39;;;;;;;12.30;11.13;;;;;;;20.89;46.13;95256.28;5985444;29;103904;-63
2022/11/07 02:46:42;;;;;;;13.43;12.03;;;;;;;20.88;46.33;95248.59;5989138;29;103784;-68
2022/11/07 02:49:45;;;;;;;13.13;12.00;;;;;;;20.86;46.21;95245.44;5983523;29;103721;-68
2022/11/07 02:52:48;;;;;;;13.17;12.07;;;;;;;20.86;46.09;95246.22;5959396;29;103768;-69
2022/11/07 02:55:53;;;;;;;13.23;11.90;;;;;;;20.85;46.05;95247.31;5972886;29;105078;-68
2022/11/07 02:58:56;;;;;;;13.03;11.83;;;;;;;20.83;46.06;95254.78;5973597;29;103921;-68
2022/11/07 03:01:59;;;;;;;12.50;11.37;;;;;;;20.84;45.92;95256.38;5985101;29;104034;-68
2022/11/07 03:05:03;;;;;;;11.73;10.73;;;;;;;20.85;46.08;95257.16;5975537;29;103694;-68
2022/11/07 03:08:06;;;;;;;14.03;12.73;;;;;;;20.85;46.24;95257.16;5977686;29;103665;-68
2022/11/07 03:11:11;;;;;;;13.07;11.77;;;;;;;20.84;46.07;95255.59;5964354;29;103896;-68
2022/11/07 03:14:15;;;;;;;13.80;12.43;;;;;;;20.81;46.08;95256.94;5972674;29;103655;-68
2022/11/07 03:17:17;;;;;;;12.90;11.70;;;;;;;20.82;45.77;95255.84;5973887;29;103876;-68
2022/11/07 03:20:21;;;;;;;12.93;11.70;;;;;;;20.81;46.01;95256.94;5993474;29;103677;-69
2022/11/07 03:23:23;;;;;;;12.93;11.70;;;;;;;20.80;45.92;95251.91;5983733;29;103944;-68
2022/11/07 03:26:28;;;;;;;13.13;11.93;;;;;;;20.80;45.71;95258.03;5986491;29;103840;-68
2022/11/07 03:29:31;;;;;;;13.47;12.27;;;;;;;20.80;45.85;95257.22;5973048;29;103722;-68
2022/11/07 03:32:34;;;;;;;13.57;12.20;;;;;;;20.81;45.67;95253.50;5977523;29;103872;-67
2022/11/07 03:35:37;;;;;;;12.57;11.40;;;;;;;20.78;46.01;95257.53;5985742;29;103904;-68
2022/11/07 03:38:40;;;;;;;12.87;11.17;;;;;;;20.79;45.82;95268.94;5980561;29;103745;-67
2022/11/07 03:41:45;;;;;;;11.93;10.90;;;;;;;20.78;46.04;95268.16;5965327;29;104031;-68
2022/11/07 03:44:48;;;;;;;13.87;12.67;;;;;;;20.76;46.05;95266.88;5975727;29;104092;-67
2022/11/07 03:47:51;;;;;;;12.40;11.30;;;;;;;20.79;45.75;95274.28;5969108;29;103906;-68
2022/11/07 03:50:54;;;;;;;13.50;12.40;;;;;;;20.79;45.72;95283.03;5972592;29;103886;-68
2022/11/07 03:53:57;;;;;;;13.10;11.80;;;;;;;20.78;45.69;95284.13;5972119;29;103065;-69
2022/11/07 03:57:01;;;;;;;12.57;11.47;;;;;;;20.79;45.82;95288.34;5963428;29;106400;-69
2022/11/07 04:00:08;;;;;;;13.10;11.80;;;;;;;20.78;45.56;95286.78;5986638;29;103877;-69
2022/11/07 04:03:11;;;;;;;13.20;11.80;;;;;;;20.77;45.51;95295.84;5972285;29;103885;-69
2022/11/07 04:06:14;;;;;;;11.20;10.30;;;;;;;20.81;45.57;95290.72;5972643;29;105145;-69
2022/11/07 04:09:17;;;;;;;12.23;11.13;;;;;;;20.82;45.38;95298.41;5962556;29;104055;-68
2022/11/07 04:19:05;;;;;;;17.93;16.23;;;;;;;20.68;44.95;95326.84;5975737;29;104015;-70
2022/11/07 04:22:08;;;;;;;17.57;15.87;;;;;;;20.60;44.65;95319.50;5968900;29;104825;-71
2022/11/07 04:25:11;;;;;;;19.23;17.27;;;;;;;20.56;44.91;95324.63;5972424;29;104250;-71
2022/11/07 04:28:16;;;;;;;24.53;21.93;;;;;;;20.52;45.45;95322.84;5970274;29;103916;-66
2022/11/07 04:31:19;;;;;;;26.13;23.43;;;;;;;20.66;45.22;95326.31;5957884;29;103740;-67
2022/11/07 04:34:22;;;;;;;29.00;26.20;;;;;;;20.72;45.16;95322.53;5969327;29;103891;-66
2022/11/07 04:37:25;;;;;;;34.33;30.80;;;;;;;20.74;44.81;95320.34;5949453;29;103741;-66
2022/11/07 04:40:30;;;;;;;34.53;31.20;;;;;;;20.74;44.81;95319.56;5969298;29;103759;-66
2022/11/07 04:43:34;;;;;;;38.27;34.37;;;;;;;20.73;44.82;95321.44;5962552;29;103907;-67
2022/11/07 04:46:37;;;;;;;30.77;27.97;;;;;;;20.72;45.11;95325.19;5971713;29;103682;-67
2022/11/07 04:49:41;;;;;;;27.70;25.00;;;;;;;20.65;45.79;95324.75;5971514;29;103278;-66
2022/11/07 04:52:45;;;;;;;27.00;24.37;;;;;;;20.66;45.56;95331.63;5972138;29;103664;-67
2022/11/07 04:55:48;;;;;;;23.57;21.57;;;;;;;20.65;45.45;95326.63;5964332;29;103734;-67
2022/11/07 04:58:52;;;;;;;23.80;21.40;;;;;;;20.71;44.93;95328.13;5974117;29;104053;-65
2022/11/07 05:01:55;;;;;;;23.13;21.03;;;;;;;20.75;46.63;95332.56;5962024;29;104221;-66
2022/11/07 05:04:59;;;;;;;25.93;23.40;;;;;;;20.50;47.16;95331.09;5981125;29;103300;-66
2022/11/07 05:08:02;;;;;;;25.10;22.70;;;;;;;20.46;46.92;95329.28;5962716;29;103704;-66
2022/11/07 05:11:06;;;;;;;23.90;21.30;;;;;;;20.47;47.36;95336.19;5971609;29;104132;-66
2022/11/07 05:14:10;;;;;;;23.23;21.00;;;;;;;20.60;46.57;95336.25;5967100;29;103704;-66
2022/11/07 05:17:14;;;;;;;21.80;19.93;;;;;;;20.72;45.89;95340.34;5963817;29;103804;-68
2022/11/07 05:20:27;;;;;;;21.63;19.53;;;;;;;20.78;46.22;95341.84;5969797;29;103915;-65
2022/11/07 05:23:30;;;;;;;20.67;18.53;;;;;;;20.81;45.84;95346.56;5978739;29;103770;-65
2022/11/07 05:26:33;;;;;;;23.57;17.60;;;;;;;20.76;45.76;95346.66;5967847;29;103779;-67
2022/11/07 05:29:38;;;;;;;19.97;17.90;;;;;;;20.77;45.68;95348.25;5959631;29;103870;-68
2022/11/07 05:32:41;;;;;;;20.53;18.37;;;;;;;20.75;45.88;95350.41;5970836;29;104142;-69
2022/11/07 05:35:45;;;;;;;18.50;16.80;;;;;;;20.73;45.57;95353.34;5970109;29;103715;-70
2022/11/07 05:38:50;;;;;;;19.53;17.73;;;;;;;20.73;45.73;95353.34;5967914;29;104033;-69
2022/11/07 05:41:53;;;;;;;20.40;17.23;;;;;;;20.73;45.61;95357.88;5958178;29;103838;-69
2022/11/07 05:44:58;;;;;;;17.87;16.30;;;;;;;20.72;45.83;95372.25;5967794;29;103696;-69
2022/11/07 05:48:04;;;;;;;17.90;16.00;;;;;;;20.73;45.63;95369.31;5967502;29;103707;-69
2022/11/07 05:51:08;;;;;;;17.77;16.27;;;;;;;20.70;45.48;95369.09;5962712;29;103626;-69
2022/11/07 05:54:11;;;;;;;17.43;15.93;;;;;;;20.72;45.66;95375.72;5967713;29;105748;-68
2022/11/07 05:57:14;;;;;;;19.53;16.80;;;;;;;20.72;45.44;95385.56;5970235;29;103868;-69
2022/11/07 06:00:19;;;;;;;17.47;15.73;;;;;;;20.72;45.61;95380.25;5969535;29;103724;-68
2022/11/07 06:03:22;;;;;;;16.90;15.30;;;;;;;20.71;45.83;95382.09;5960722;29;103833;-69
2022/11/07 06:06:25;;;;;;;17.77;16.00;;;;;;;20.72;45.60;95385.56;5970200;29;104133;-69
2022/11/07 06:09:28;;;;;;;17.50;16.00;;;;;;;20.72;45.74;95390.88;5968948;29;103810;-69
2022/11/07 06:12:32;;;;;;;16.60;15.00;;;;;;;20.69;45.46;95392.25;5970283;29;103633;-69
2022/11/07 06:15:37;;;;;;;16.67;15.17;;;;;;;20.73;45.30;95400.44;5960102;29;103878;-69
2022/11/07 06:18:41;;;;;;;16.63;15.07;;;;;;;20.71;45.58;95406.03;5970009;29;103808;-69
2022/11/07 06:21:44;;;;;;;17.07;15.37;;;;;;;20.73;45.32;95406.53;5969943;29;103681;-69
2022/11/07 06:24:47;;;;;;;17.07;15.47;;;;;;;20.72;45.53;95410.28;5965609;29;104538;-69
2022/11/07 06:27:50;;;;;;;16.67;14.93;;;;;;;20.71;45.67;95416.69;5964674;29;104021;-69
2022/11/07 06:30:59;;;;;;;17.00;15.47;;;;;;;20.71;45.36;95407.91;5969060;29;104341;-70
2022/11/07 06:34:02;;;;;;;16.00;14.57;;;;;;;20.69;45.67;95416.19;5970216;29;103750;-69
2022/11/07 06:37:06;;;;;;;15.93;14.33;;;;;;;20.72;45.81;95415.59;5959508;29;103921;-69
2022/11/07 06:40:10;;;;;;;17.63;16.13;;;;;;;20.71;45.44;95424.66;5969890;29;103838;-68
2022/11/07 06:43:16;;;;;;;16.40;15.07;;;;;;;20.68;45.58;95422.56;5970161;29;104297;-69
2022/11/07 06:46:22;;;;;;;17.03;15.33;;;;;;;20.71;45.81;95421.22;5969314;29;103783;-68
2022/11/07 06:49:25;;;;;;;15.30;13.90;;;;;;;20.69;45.86;95423.38;5959951;29;103978;-68
2022/11/07 06:52:28;;;;;;;18.13;16.23;;;;;;;20.68;45.85;95427.09;5973404;29;103893;-68
2022/11/07 06:55:33;;;;;;;15.90;14.40;;;;;;;20.68;45.92;95429.75;5973902;29;104587;-69
2022/11/07 06:58:36;;;;;;;15.50;14.13;;;;;;;20.66;45.97;95431.91;5972190;29;104085;-68
2022/11/07 07:01:40;;;;;;;17.70;16.07;;;;;;;20.67;45.69;95436.94;5964083;29;103732;-69
2022/11/07 07:04:44;;;;;;;16.83;15.33;;;;;;;20.68;45.96;95435.88;5973677;29;103793;-68
2022/11/07 07:07:47;;;;;;;15.97;14.57;;;;;;;20.67;45.76;95438.78;5973231;29;103935;-68
2022/11/07 07:10:50;;;;;;;16.97;15.27;;;;;;;20.66;45.66;95432.69;5963955;29;103729;-68
2022/11/07 07:13:56;;;;;;;16.47;14.87;;;;;;;20.67;45.88;95436.13;5972771;29;103775;-68
2022/11/07 07:17:05;;;;;;;16.50;14.90;;;;;;;20.68;45.59;95433.22;5973295;29;103717;-65
2022/11/07 07:20:09;;;;;;;17.13;15.53;;;;;;;20.69;45.96;95449.97;5973397;29;103774;-65
2022/11/07 07:23:13;;;;;;;18.00;16.43;;;;;;;20.68;45.83;95451.81;5963330;29;103910;-65
2022/11/07 07:26:16;;;;;;;15.63;14.10;;;;;;;20.69;45.74;95449.97;5972883;29;103788;-65
2022/11/07 07:29:19;;;;;;;16.63;15.07;;;;;;;20.68;45.56;95449.16;5972825;29;103923;-65
2022/11/07 07:32:24;;;;;;;16.87;15.27;;;;;;;20.68;45.82;95449.16;5972402;29;106933;-65
2022/11/07 07:35:27;;;;;;;17.33;15.73;;;;;;;20.72;45.99;95452.03;5962291;29;103724;-66
2022/11/07 07:38:30;;;;;;;17.27;15.77;;;;;;;20.69;45.85;95452.63;5973001;29;104035;-65
2022/11/07 07:41:33;;;;;;;15.90;14.40;;;;;;;20.68;45.66;95454.50;5973097;29;103798;-65
2022/11/07 07:44:42;;;;;;;16.50;14.90;;;;;;;20.66;45.81;95455.81;5966796;29;103709;-65
2022/11/07 07:47:46;;;;;;;17.00;15.40;;;;;;;20.66;45.79;95456.63;5969864;29;103635;-65
2022/11/07 07:50:49;;;;;;;17.77;15.90;;;;;;;20.65;45.94;95454.25;5971916;29;103866;-66
2022/11/07 07:53:52;;;;;;;17.10;15.60;;;;;;;20.66;45.72;95451.28;5972979;29;103866;-66
2022/11/07 07:56:55;;;;;;;16.33;14.70;;;;;;;20.67;46.10;95452.91;5962116;29;103443;-65
2022/11/07 07:59:58;;;;;;;16.60;14.90;;;;;;;20.68;46.11;95454.50;5971877;29;103791;-66
2022/11/07 08:03:03;;;;;;;16.83;15.33;;;;;;;20.68;45.41;95453.69;5971353;29;103760;-65
2022/11/07 08:06:07;;;;;;;17.03;15.43;;;;;;;20.69;46.08;95461.38;5972533;29;106573;-65
2022/11/07 08:09:10;;;;;;;16.13;14.53;;;;;;;20.68;45.78;95459.00;5962663;29;103968;-65
2022/11/07 08:12:13;;;;;;;15.73;14.33;;;;;;;20.70;45.95;95459.53;5972656;29;104225;-65
2022/11/07 08:15:18;;;;;;;16.47;15.07;;;;;;;20.71;45.73;95461.88;5971699;29;103716;-65
2022/11/07 08:18:24;;;;;;;16.53;14.87;;;;;;;20.72;45.83;95449.38;5967557;29;103868;-65
2022/11/07 08:21:27;;;;;;;17.50;16.00;;;;;;;20.72;45.66;95452.81;5966381;29;103890;-65
2022/11/07 08:24:30;;;;;;;17.33;15.80;;;;;;;20.71;45.80;95455.78;5972957;29;107292;-65
2022/11/07 08:27:33;;;;;;;17.10;15.60;;;;;;;20.72;45.42;95452.81;5971709;29;104358;-65
2022/11/07 08:30:36;;;;;;;17.67;15.97;;;;;;;20.71;45.93;95461.88;5962471;29;103786;-65
2022/11/07 08:33:41;;;;;;;17.10;15.60;;;;;;;20.71;46.05;95467.22;5971123;29;104133;-65
2022/11/07 08:36:44;;;;;;;16.57;14.87;;;;;;;20.69;46.11;95456.06;5971693;29;103720;-65
2022/11/07 08:39:47;;;;;;;16.43;14.83;;;;;;;20.71;45.98;95461.88;5972380;29;106568;-66
2022/11/07 08:42:50;;;;;;;18.03;16.37;;;;;;;20.70;46.02;95462.97;5962307;29;103914;-65
2022/11/07 08:45:54;;;;;;;18.57;16.73;;;;;;;20.70;46.12;95460.31;5971630;29;104064;-65
2022/11/07 08:48:59;;;;;;;17.10;15.30;;;;;;;20.73;45.90;95465.06;5971625;29;103795;-65
2022/11/07 08:52:02;;;;;;;16.83;15.47;;;;;;;20.74;45.98;95466.63;5971239;29;103809;-65
2022/11/07 08:55:05;;;;;;;15.90;14.50;;;;;;;20.71;46.05;95456.56;5962379;29;103943;-65
2022/11/07 08:58:08;;;;;;;16.50;15.07;;;;;;;20.75;46.07;95464.75;5971326;29;103675;-65
2022/11/07 09:01:11;;;;;;;17.20;13.80;;;;;;;20.77;45.73;95460.72;5971042;29;106952;-65
2022/11/07 09:04:16;;;;;;;15.97;14.57;;;;;;;20.79;45.74;95461.22;5963512;29;103641;-66
2022/11/07 09:07:19;;;;;;;15.13;13.77;;;;;;;20.80;45.79;95456.69;5970052;29;104001;-65
2022/11/07 09:10:23;;;;;;;16.10;14.57;;;;;;;20.81;45.66;95456.41;5970997;29;103719;-64
2022/11/07 09:13:26;;;;;;;15.23;13.73;;;;;;;20.81;45.85;95458.28;5970292;29;103953;-65
2022/11/07 09:16:29;;;;;;;15.43;14.03;;;;;;;20.81;45.91;95463.59;5961156;29;104499;-65
2022/11/07 09:19:34;;;;;;;16.93;15.43;;;;;;;20.81;45.72;95464.41;5970580;29;103765;-65
2022/11/07 09:22:37;;;;;;;15.80;14.33;;;;;;;20.83;46.18;95464.09;5970944;29;103896;-65
2022/11/07 09:25:40;;;;;;;17.03;15.47;;;;;;;20.82;46.09;95452.69;5971428;29;103742;-64
2022/11/07 09:28:43;;;;;;;16.20;14.60;;;;;;;20.82;45.84;95455.34;5961498;29;103740;-65
2022/11/07 09:31:53;;;;;;;15.50;14.03;;;;;;;20.84;45.86;95455.06;5970792;29;103819;-66
2022/11/07 09:34:58;;;;;;;14.87;13.57;;;;;;;20.82;45.86;95446.56;5969980;29;104974;-65
2022/11/07 09:38:06;;;;;;;14.23;13.00;;;;;;;20.88;46.33;95445.44;5966330;29;103645;-66
2022/11/07 09:41:22;;;;;;;15.20;13.90;;;;;;;20.98;45.82;95441.81;5965871;29;103231;-66
2022/11/07 16:28:22;;;;;;;26.87;22.53;;;;;;;20.25;45.12;95380.06;5924126;29;103086;-67
2022/11/07 16:31:25;;;;;;;27.77;21.70;;;;;;;20.43;44.99;95383.81;5924298;29;103800;-67
2022/11/07 16:34:28;;;;;;;33.73;20.80;;;;;;;20.58;44.75;95390.78;5926896;29;103737;-67
2022/11/07 16:37:31;;;;;;;28.63;22.77;;;;;;;20.65;45.15;95385.91;5917262;29;103774;-66
2022/11/07 16:40:34;;;;;;;23.93;21.10;;;;;;;20.68;45.12;95397.84;5935742;29;103752;-66
2022/11/07 16:43:39;;;;;;;23.83;21.30;;;;;;;20.72;45.09;95394.31;5931400;29;103987;-67
2022/11/07 16:46:42;;;;;;;26.40;22.80;;;;;;;20.74;45.18;95392.16;5942958;29;104014;-67
2022/11/07 16:49:46;;;;;;;24.37;22.00;;;;;;;20.74;45.41;95400.16;5928868;29;104272;-67
2022/11/07 16:52:52;;;;;;;24.67;21.50;;;;;;;20.76;45.06;95403.31;5936771;29;104018;-67
2022/11/07 16:56:00;;;;;;;24.80;21.93;;;;;;;20.76;45.27;95402.50;5930248;29;103708;-67
2022/11/07 16:59:06;;;;;;;25.20;21.30;;;;;;;20.76;45.34;95402.50;5937560;29;103705;-67
2022/11/07 17:02:16;;;;;;;23.97;21.47;;;;;;;20.76;45.82;95399.84;5924743;29;103653;-67
2022/11/07 17:05:23;;;;;;;23.27;20.17;;;;;;;20.76;45.80;95408.63;5940203;29;106503;-67
2022/11/07 17:08:31;;;;;;;23.93;21.37;;;;;;;20.77;45.52;95409.41;5933627;29;103735;-67
2022/11/07 17:11:34;;;;;;;23.17;20.60;;;;;;;20.77;46.04;95409.41;5921289;29;107076;-66
2022/11/07 17:14:38;;;;;;;23.23;20.93;;;;;;;20.77;46.02;95410.19;5944592;29;105704;-67
2022/11/07 17:17:42;;;;;;;23.37;20.90;;;;;;;20.77;46.25;95406.75;5944001;29;103392;-67
2022/11/07 17:20:45;;;;;;;21.60;19.47;;;;;;;20.77;46.45;95402.22;5934425;29;103748;-67
2022/11/07 17:23:54;;;;;;;22.87;20.60;;;;;;;20.78;46.03;95403.00;5916277;29;105286;-68
2022/11/07 17:26:57;;;;;;;22.80;20.57;;;;;;;20.78;46.56;95406.47;5959336;29;103773;-68
2022/11/07 17:30:02;;;;;;;22.50;19.93;;;;;;;20.78;46.41;95403.00;5974374;29;103760;-68
2022/11/07 17:33:10;;;;;;;23.37;21.17;;;;;;;20.78;46.19;95398.47;5949569;29;103772;-67
2022/11/07 17:36:29;;;;;;;23.20;20.90;;;;;;;20.76;46.07;95397.97;5952947;29;104402;-68
2022/11/07 17:39:39;;;;;;;25.27;22.90;;;;;;;20.73;45.45;95395.13;5969056;29;104193;-68
2022/11/07 17:42:42;;;;;;;22.77;20.43;;;;;;;20.78;46.10;95390.50;5979348;29;103859;-68
2022/11/07 17:45:46;;;;;;;24.30;21.80;;;;;;;20.89;46.59;95391.94;5973790;29;106083;-67
2022/11/07 17:48:50;;;;;;;25.60;22.07;;;;;;;20.94;47.13;95396.38;5965861;29;104476;-67
2022/11/07 17:51:53;;;;;;;24.43;21.60;;;;;;;20.96;46.28;95398.75;5968902;29;103892;-67
2022/11/07 17:54:56;;;;;;;25.30;22.60;;;;;;;20.97;46.33;95406.44;5972314;29;103946;-67
2022/11/07 17:57:59;;;;;;;23.23;21.07;;;;;;;20.98;46.54;95415.22;5981359;29;104003;-68
2022/11/07 18:01:04;;;;;;;21.77;19.67;;;;;;;;;;5986292;29;103809;-67
2022/11/07 18:04:09;;;;;;;24.70;21.13;;;;;;;21.05;46.92;95421.00;5981271;29;103554;-67
2022/11/07 18:07:12;;;;;;;23.23;20.93;;;;;;;21.08;46.68;95431.84;5979288;29;103769;-66
2022/11/07 18:10:16;;;;;;;23.07;20.70;;;;;;;21.07;46.65;95424.97;5959777;29;104356;-66
2022/11/07 18:13:19;;;;;;;22.77;20.43;;;;;;;21.03;46.63;95420.47;5971128;29;103883;-67
2022/11/07 18:16:26;;;;;;;25.13;19.17;;;;;;;21.02;46.55;95427.69;5992572;29;104763;-67
2022/11/07 18:19:29;;;;;;;24.83;19.37;;;;;;;21.01;46.68;95420.78;5968616;29;104772;-67
2022/11/07 18:22:33;;;;;;;22.90;20.80;;;;;;;21.00;46.70;95419.16;5964760;29;103649;-68
2022/11/07 18:25:37;;;;;;;21.87;19.80;;;;;;;20.99;46.69;95422.13;5970033;29;103726;-68
2022/11/07 18:28:41;;;;;;;22.30;20.10;;;;;;;21.00;46.32;95427.16;5968390;29;103836;-66
2022/11/07 18:31:48;;;;;;;20.90;18.77;;;;;;;21.00;46.68;95421.03;5972482;29;103983;-67
2022/11/07 18:34:51;;;;;;;21.60;19.50;;;;;;;21.03;46.20;95423.16;5946937;29;104570;-67
2022/11/07 18:37:54;;;;;;;22.80;20.50;;;;;;;21.00;46.32;95418.38;5956899;29;104022;-68
2022/11/07 18:40:59;;;;;;;21.73;19.43;;;;;;;21.04;46.34;95422.06;5969044;29;103688;-67
2022/11/07 18:44:02;;;;;;;21.23;19.33;;;;;;;21.02;46.33;95411.72;5960944;29;103946;-67
2022/11/07 18:47:08;;;;;;;21.80;19.80;;;;;;;21.02;46.29;95405.59;5983306;29;103684;-69
2022/11/07 18:50:11;;;;;;;21.43;19.30;;;;;;;21.02;46.15;95405.59;5972216;29;103882;-67
2022/11/07 18:53:14;;;;;;;20.13;18.43;;;;;;;21.03;46.33;95409.84;5968660;29;103700;-67
2022/11/07 18:56:19;;;;;;;20.90;19.10;;;;;;;21.06;46.07;95406.63;5954381;29;103895;-68
2022/11/07 18:59:22;;;;;;;22.97;20.70;;;;;;;21.09;46.20;95411.38;5971519;29;103829;-69
2022/11/07 19:02:27;;;;;;;21.23;19.10;;;;;;;21.10;46.50;95408.41;5974259;29;104038;-68
2022/11/07 19:05:30;;;;;;;21.67;19.43;;;;;;;21.12;46.04;95418.75;5966860;29;104696;-68
2022/11/07 19:08:36;;;;;;;20.60;18.70;;;;;;;21.13;46.35;95420.34;5985700;29;103744;-68
2022/11/07 19:11:39;;;;;;;21.17;19.20;;;;;;;21.13;46.77;95430.97;5969843;29;104060;-69
2022/11/07 19:14:42;;;;;;;20.90;19.00;;;;;;;21.14;46.96;95430.69;5981494;29;103663;-68
2022/11/07 19:17:46;;;;;;;21.73;19.60;;;;;;;21.18;46.77;95437.03;5966159;29;105802;-68
2022/11/07 19:20:54;;;;;;;20.73;18.63;;;;;;;21.20;46.68;95439.41;5980599;29;103831;-69
2022/11/07 19:23:57;;;;;;;21.17;19.10;;;;;;;21.19;46.48;95445.81;5975550;29;103634;-69
2022/11/07 19:27:00;;;;;;;20.40;18.40;;;;;;;21.15;47.02;95450.91;5972176;29;103943;-70
2022/11/07 19:30:04;;;;;;;21.23;19.13;;;;;;;21.16;46.91;95452.47;5985085;29;103786;-69
2022/11/07 19:33:10;;;;;;;20.67;18.77;;;;;;;21.15;47.00;95458.09;5986843;29;103867;-68
2022/11/07 19:36:15;;;;;;;18.77;17.07;;;;;;;21.15;47.08;95464.22;5986428;29;103738;-67
2022/11/07 19:39:18;;;;;;;20.00;18.10;;;;;;;21.13;47.39;95461.03;5966799;29;103978;-68
2022/11/07 19:42:26;;;;;;;20.07;18.17;;;;;;;21.14;47.09;95459.97;5968188;29;106008;-68
2022/11/07 19:45:30;;;;;;;21.23;19.23;;;;;;;21.09;47.54;95481.34;5971834;29;103720;-68
2022/11/07 19:48:34;;;;;;;22.10;20.20;;;;;;;21.04;46.23;95472.63;5970694;29;103718;-68
2022/11/07 19:51:37;;;;;;;24.27;22.10;;;;;;;21.00;45.67;95475.03;5962835;29;106329;-67
2022/11/07 19:54:43;;;;;;;24.60;22.10;;;;;;;20.97;46.22;95467.63;5970962;29;103954;-68
2022/11/07 19:57:46;;;;;;;23.70;21.40;;;;;;;21.00;46.33;95471.59;5980674;29;103645;-69
2022/11/07 20:00:49;;;;;;;22.60;20.60;;;;;;;21.02;46.29;95470.25;5972506;29;103707;-69
2022/11/07 20:03:55;;;;;;;23.57;21.40;;;;;;;21.08;46.33;95474.44;5970722;29;104079;-69
2022/11/07 20:06:59;;;;;;;22.23;20.07;;;;;;;21.10;46.51;95466.94;5979582;29;103877;-68
2022/11/07 20:10:02;;;;;;;22.23;20.13;;;;;;;21.12;46.89;95464.00;5988486;29;103677;-69
2022/11/07 20:13:05;;;;;;;20.50;18.57;;;;;;;21.13;46.68;95466.38;5964275;29;103680;-68
2022/11/07 20:16:08;;;;;;;20.80;19.00;;;;;;;21.12;46.95;95462.13;5966351;29;105043;-69
2022/11/07 20:19:13;;;;;;;19.77;18.00;;;;;;;21.14;46.74;95459.19;5981312;29;103724;-69
2022/11/07 20:22:16;;;;;;;20.83;18.93;;;;;;;21.14;46.91;95465.28;5970424;29;103901;-69
2022/11/07 20:25:19;;;;;;;20.77;18.77;;;;;;;21.14;47.23;95456.50;5944353;29;103749;-68
2022/11/07 20:28:22;;;;;;;19.73;17.80;;;;;;;21.12;47.08;95462.13;5961620;29;103822;-69
2022/11/07 20:31:27;;;;;;;20.60;18.70;;;;;;;21.14;47.08;95462.63;5972328;29;103754;-68
2022/11/07 20:34:31;;;;;;;18.80;17.10;;;;;;;21.15;47.20;95463.41;5976125;29;103841;-69
2022/11/07 20:37:35;;;;;;;21.77;19.67;;;;;;;21.08;46.73;95466.44;5961893;29;103987;-69
2022/11/07 20:40:39;;;;;;;20.17;18.30;;;;;;;21.04;46.30;95470.75;5971472;29;105935;-68
2022/11/07 20:43:43;;;;;;;20.50;18.50;;;;;;;21.00;46.69;95468.94;5970681;29;104350;-69
2022/11/07 20:46:46;;;;;;;21.83;19.80;;;;;;;21.03;46.80;95474.50;5980675;29;103747;-68
2022/11/07 20:49:51;;;;;;;21.20;19.23;;;;;;;20.98;46.31;95471.09;5960256;29;104200;-69